NCAR-RAP Real-Time Weather Data

Output produced by METARs form (10 April 2020  07:26 UTC)
found at http://weather.rap.ucar.edu/surface/
 
KAUW 100654Z AUTO 31009KT 10SM CLR M01/M06 A2991 RMK AO2 SLP147 T10111061
KAUW 100554Z AUTO 30009KT 10SM FEW044 00/M06 A2990 RMK AO2 SLP142 60000 T00001061 10022 20000 400501017 52006
KAUW 100454Z AUTO 31011G19KT 10SM BKN042 01/M07 A2989 RMK AO2 SLP140 T00061067
KAUW 100354Z AUTO 31011KT 10SM CLR 00/M07 A2989 RMK AO2 SLP139 T00001067
KAUW 100254Z AUTO 32010KT 10SM CLR 00/M06 A2988 RMK AO2 SLP135 60000 T00001061 51024
KAUW 100154Z AUTO 33011KT 10SM BKN070 01/M06 A2987 RMK AO2 PK WND 33027/0101 SNE16 SLP132 P0000 T00061061
KAUW 100054Z AUTO 34017G31KT 6SM -SN BKN042 OVC065 01/M06 A2984 RMK AO2 PK WND 33031/0041 SNB51 SLP123 P0000 T00061056
KAUW 092354Z AUTO 33012G22KT 10SM OVC070 02/M09 A2981 RMK AO2 PK WND 31027/2300 SLP111 60000 T00221094 10050 20006 53026
KAUW 092254Z AUTO 33011G23KT 10SM BKN070 03/M11 A2978 RMK AO2 PK WND 35028/2212 SLP099 T00281106
KAUW 092154Z AUTO 34012G29KT 10SM SCT060 BKN070 04/M11 A2975 RMK AO2 PK WND 33034/2057 SLP087 T00391106
KAUW 092054Z AUTO 32016G30KT 10SM FEW050 SCT065 BKN080 03/M11 A2973 RMK AO2 PK WND 31030/2025 SLP082 60000 T00331106 53010
KAUW 091954Z AUTO 31019G28KT 10SM FEW055 BKN070 04/M09 A2971 RMK AO2 PK WND 32029/1942 SNE08B26E35 SLP075 P0000 T00441094
KAUW 091901Z AUTO 34007G22KT 3SM -SN SCT029 BKN038 OVC090 01/M04 A2971 RMK AO2 P0000 T00061044
KAUW 091858Z AUTO 34009G31KT 2SM -SN BKN027 BKN038 BKN055 01/M04 A2971 RMK AO2 VIS 1 1/4V5 P0000 T00061044
KAUW 091854Z AUTO 34015G31KT 3SM -SN SCT027 BKN036 01/M04 A2971 RMK AO2 PK WND 32031/1849 SNB51 SLP077 P0000 T00111039
KAUW 091754Z AUTO 30011G19KT 10SM SCT033 BKN050 OVC060 01/M03 A2970 RMK AO2 SNE48 SLP072 P0001 60001 T00111028 10022 21017 51009
KAUW 091752Z AUTO 33011G17KT 9SM SCT026 BKN048 OVC060 01/M03 A2970 RMK AO2 SNE48 P0001
KAUW 091740Z AUTO 31008G18KT 4SM -SN BR FEW016 BKN022 OVC048 00/M02 A2970 RMK AO2 P0001 T00001022
KAUW 091736Z AUTO 31009G18KT 1SM -SN BR BKN018 BKN026 OVC036 M01/M02 A2970 RMK AO2 P0001 T10061022
KAUW 091725Z AUTO 34014G25KT 1/2SM SN FZFG BKN013 BKN030 OVC036 M01/M03 A2971 RMK AO2 P0001 T10111033
KAUW 091723Z AUTO 34013G25KT 3/4SM -SN SCT015 BKN030 OVC036 M01/M03 A2971 RMK AO2 P0000 T10061033
KAUW 091721Z AUTO 33014G25KT 1 1/4SM -SN FEW009 BKN030 OVC036 00/M03 A2971 RMK AO2 P0000 T00001028
KAUW 091716Z AUTO 35009G19KT 3SM -SN FEW015 BKN028 OVC036 00/M03 A2970 RMK AO2 P0000 T00001028
KAUW 091706Z AUTO 34015G20KT 1 3/4SM -SN BR FEW014 BKN028 OVC036 M01/M03 A2970 RMK AO2 P0000 T10061028
KAUW 091701Z AUTO 36012G22KT 2SM -SN BR FEW014 BKN033 OVC044 00/M02 A2970 RMK AO2 P0000 T00001022
KAUW 091654Z AUTO 36011G22KT 3SM -SN FEW016 BKN038 OVC047 01/M04 A2969 RMK AO2 PK WND 30028/1621 SLP070 P0000 T00061044
KAUW 091554Z AUTO 28013G21KT 9SM -SN BKN038 OVC050 01/M06 A2967 RMK AO2 PK WND 28026/1533 SNB52 SLP062 P0000 T00111056
KAUW 091454Z AUTO 30012G19KT 10SM FEW031 SCT048 BKN060 02/M04 A2967 RMK AO2 SNE21 SLP061 P0000 60000 T00171044 58004
KAUW 091418Z AUTO 29010KT 6SM -SN FEW025 BKN041 OVC050 00/M03 A2968 RMK AO2 P0000 T00001033
KAUW 091408Z AUTO 30012KT 2SM -SN SCT022 BKN030 OVC050 M01/M03 A2968 RMK AO2 VIS 1V5 P0000 T10061033
KAUW 091359Z AUTO 29012G20KT 1 3/4SM -SN FEW021 BKN028 OVC050 M01/M03 A2968 RMK AO2 P0000 T10061033
KAUW 091354Z AUTO 29011KT 8SM -SN FEW021 BKN026 OVC049 00/M03 A2968 RMK AO2 SNB17 SLP064 P0000 T00001033
KAUW 091254Z AUTO 30010KT 10SM BKN023 BKN038 OVC046 00/M04 A2969 RMK AO2 SLP065 T00001039
KAUW 091154Z AUTO 29011KT 10SM CLR M01/M05 A2969 RMK AO2 SLP065 T10111050 10039 21011 55000
KAUW 091054Z AUTO 29011KT 10SM CLR M01/M06 A2968 RMK AO2 SLP062 T10111056
KAUW 090954Z AUTO 29011G20KT 10SM CLR 00/M06 A2968 RMK AO2 PK WND 30026/0856 SLP061 T00001061
KAUW 090854Z AUTO 31014G20KT 10SM CLR 01/M06 A2969 RMK AO2 PK WND 31027/0809 SLP063 T00061061 53008